This is the latest recevied weather packets stored in our database for station/object OK1TOM-6. If no packets are shown the sender has not sent any weather packets the latest 10 day(s).
| Time | Temp. | Humidity | Pressure | Rain* | Wind** | Luminosity | Snow |
|---|---|---|---|---|---|---|---|
| 1777524949 | -1.67° C | 68% | 1032.1 hPa | 0 mm | - | - | - |
| 1777524346 | -2.78° C | 70% | 1032.1 hPa | 0 mm | - | - | - |
| 1777523743 | -3.33° C | 75% | 1031.9 hPa | 0 mm | - | - | - |
| 1777523139 | -3.89° C | 74% | 1031.7 hPa | 0 mm | - | - | - |
| 1777522536 | -3.33° C | 74% | 1031.7 hPa | 0 mm | - | - | - |
| 1777521932 | -4.44° C | 79% | 1031.7 hPa | 0 mm | - | - | - |
| 1777521329 | -5° C | 78% | 1031.6 hPa | 0 mm | - | - | - |
| 1777520725 | -4.44° C | 76% | 1031.7 hPa | 0 mm | - | - | - |
| 1777520122 | -3.89° C | 73% | 1031.6 hPa | 0 mm | - | - | - |
| 1777519518 | -3.89° C | 73% | 1031.5 hPa | 0 mm | - | - | - |
| 1777518975 | -3.89° C | 75% | 1031.6 hPa | 0 mm | - | - | - |
| 1777518372 | -3.89° C | 73% | 1031.5 hPa | 0 mm | - | - | - |
| 1777517768 | -3.33° C | 71% | 1031.5 hPa | 0 mm | - | - | - |
| 1777517165 | -3.33° C | 71% | 1031.3 hPa | 0 mm | - | - | - |
| 1777516562 | -3.33° C | 72% | 1031.3 hPa | 0 mm | - | - | - |
| 1777515958 | -2.22° C | 69% | 1031.2 hPa | 0 mm | - | - | - |
| 1777515355 | -2.22° C | 69% | 1031.3 hPa | 0 mm | - | - | - |
| 1777514752 | -2.22° C | 68% | 1031.3 hPa | 0 mm | - | - | - |
| 1777514148 | -2.22° C | 67% | 1031.2 hPa | 0 mm | - | - | - |
| 1777513545 | -1.67° C | 65% | 1031.3 hPa | 0 mm | - | - | - |
| 1777512941 | -1.67° C | 66% | 1031.2 hPa | 0 mm | - | - | - |
| 1777512338 | -1.67° C | 66% | 1031.2 hPa | 0 mm | - | - | - |
| 1777511735 | -1.67° C | 65% | 1031.2 hPa | 0 mm | - | - | - |
| 1777511131 | -1.67° C | 64% | 1031.2 hPa | 0 mm | - | - | - |
| 1777510528 | -1.11° C | 62% | 1031.2 hPa | 0 mm | - | - | - |
* Rain latest hour (hover to see other rain measurements)
** Current wind speed in m/s (hover to see current wind gust speed)